createdAt,value
2023-04-12T05:03:15.320Z,41.97
2023-04-12T05:04:16.349Z,40.94
2023-04-12T05:05:16.290Z,40.81
2023-04-12T05:06:15.364Z,40.70
2023-04-12T05:07:15.363Z,40.60
2023-04-12T05:08:16.400Z,40.59
2023-04-12T05:09:16.419Z,40.58
2023-04-12T05:10:15.430Z,40.49
2023-04-12T05:11:16.472Z,40.47
2023-04-12T05:12:16.481Z,40.47
2023-04-12T05:13:16.518Z,40.46
2023-04-12T05:14:16.603Z,40.46
2023-04-12T05:15:15.601Z,40.45
2023-04-12T05:16:16.697Z,40.39
2023-04-12T05:17:16.673Z,40.37
2023-04-12T05:18:16.681Z,40.37
2023-04-12T05:19:16.727Z,40.37
2023-04-12T05:20:16.707Z,40.37
2023-04-12T05:21:16.732Z,40.36
2023-04-12T05:22:15.749Z,40.36
2023-04-12T05:23:16.759Z,40.33
2023-04-12T05:24:16.779Z,40.33
2023-04-12T05:25:16.809Z,40.35
2023-04-12T05:26:16.851Z,40.32
2023-04-12T05:27:15.851Z,40.34
2023-04-12T05:28:16.881Z,40.32
2023-04-12T05:29:16.996Z,40.33
2023-04-12T05:30:15.955Z,40.27
2023-04-12T05:31:16.036Z,40.27
2023-04-12T05:32:17.023Z,40.26
2023-04-12T05:33:17.055Z,40.23
2023-04-12T05:34:17.133Z,40.25
2023-04-12T05:35:16.126Z,40.27
2023-04-12T05:36:17.129Z,40.29
2023-04-12T05:37:17.203Z,40.22
2023-04-12T05:38:16.188Z,40.22
2023-04-12T05:39:18.822Z,40.19
2023-04-12T05:40:17.209Z,40.23
2023-04-12T05:41:16.222Z,40.21
2023-04-12T05:42:17.190Z,40.22
2023-04-12T05:43:17.188Z,40.26
2023-04-12T05:44:16.161Z,40.22
2023-04-12T05:45:17.182Z,40.20
2023-04-12T05:46:16.190Z,40.24
2023-04-12T05:47:17.150Z,40.21
2023-04-12T05:48:17.148Z,40.20
2023-04-12T05:49:17.179Z,40.16
2023-04-12T05:50:16.128Z,40.17
2023-04-12T05:51:16.149Z,40.17
2023-04-12T05:52:16.404Z,40.17
2023-04-12T05:53:17.195Z,40.15
2023-04-12T05:54:17.899Z,40.19
2023-04-12T05:55:17.101Z,40.15
2023-04-12T05:56:17.094Z,40.15
2023-04-12T05:57:17.084Z,40.10
2023-04-12T05:58:16.086Z,40.10
2023-04-12T05:59:17.053Z,40.15
2023-04-12T06:00:17.065Z,40.07
2023-04-12T06:01:17.059Z,40.14
2023-04-12T06:02:17.672Z,40.08
2023-04-12T06:03:17.211Z,40.07
2023-04-12T06:04:17.210Z,40.13
2023-04-12T06:05:17.153Z,40.13
2023-04-12T06:06:17.002Z,40.11
2023-04-12T06:07:17.056Z,40.08
2023-04-12T06:08:16.995Z,40.06
2023-04-12T06:09:17.111Z,40.08
2023-04-12T06:10:15.989Z,40.10
2023-04-12T06:11:16.973Z,40.11
2023-04-12T06:12:16.091Z,40.10
2023-04-12T06:13:15.969Z,40.09
2023-04-12T06:14:15.970Z,40.12
2023-04-12T06:15:16.015Z,40.08
2023-04-12T06:16:16.076Z,40.08
2023-04-12T06:17:17.086Z,40.03
2023-04-12T06:18:17.169Z,40.08
2023-04-12T06:19:17.170Z,40.07
2023-04-12T06:20:16.136Z,40.07
2023-04-12T06:21:16.206Z,40.06
2023-04-12T06:22:17.275Z,40.00
2023-04-12T06:23:16.259Z,40.00
2023-04-12T06:24:17.237Z,40.06
2023-04-12T06:25:17.357Z,40.03
2023-04-12T06:26:18.604Z,40.00
2023-04-12T06:27:16.482Z,40.03
2023-04-12T06:28:17.470Z,40.03
2023-04-12T06:29:17.483Z,40.00
2023-04-12T06:30:16.532Z,40.06
2023-04-12T06:31:17.539Z,40.04
2023-04-12T06:32:16.572Z,39.99
2023-04-12T06:33:17.595Z,40.00
2023-04-12T06:34:16.582Z,39.95
2023-04-12T06:35:17.603Z,39.98
2023-04-12T06:36:16.642Z,40.03
2023-04-12T06:37:16.632Z,39.96
2023-04-12T06:38:16.649Z,39.98
2023-04-12T06:39:17.693Z,39.97
2023-04-12T06:40:17.732Z,39.95
2023-04-12T06:41:17.699Z,40.00
2023-04-12T06:42:16.731Z,39.98
2023-04-12T06:43:17.719Z,39.97
2023-04-12T06:44:17.749Z,39.90
2023-04-12T06:45:17.747Z,39.87
2023-04-12T06:46:17.791Z,39.91
2023-04-12T06:47:17.809Z,39.92
2023-04-12T06:48:16.816Z,39.92
2023-04-12T06:49:17.816Z,39.89
2023-04-12T06:50:16.817Z,39.92
2023-04-12T06:51:16.858Z,39.89
2023-04-12T06:52:17.937Z,39.91
2023-04-12T06:53:17.886Z,39.87
2023-04-12T06:54:17.922Z,39.87
2023-04-12T06:55:17.155Z,39.86
2023-04-12T06:56:18.684Z,39.85
2023-04-12T06:57:17.433Z,39.84
2023-04-12T06:58:17.976Z,39.86
2023-04-12T06:59:18.000Z,39.86
2023-04-12T07:00:17.005Z,39.90
2023-04-12T07:01:17.112Z,39.85
2023-04-12T07:02:17.111Z,39.84
2023-04-12T07:03:17.111Z,39.82
2023-04-12T07:04:18.155Z,39.84
2023-04-12T07:05:18.084Z,39.82
2023-04-12T07:06:25.104Z,39.84
2023-04-12T07:07:18.114Z,39.86
2023-04-12T07:08:17.111Z,39.80
2023-04-12T07:09:18.072Z,39.84
2023-04-12T07:10:18.061Z,39.84
2023-04-12T07:11:21.638Z,39.83
2023-04-12T07:12:17.046Z,39.83
2023-04-12T07:13:18.058Z,39.84
2023-04-12T07:14:17.075Z,39.81
2023-04-12T07:15:18.039Z,39.78
2023-04-12T07:16:18.378Z,39.82
2023-04-12T07:17:18.030Z,39.80
2023-04-12T07:18:18.010Z,39.81
2023-04-12T07:19:18.008Z,39.86
2023-04-12T07:20:16.983Z,39.74
2023-04-12T07:21:16.982Z,39.77
2023-04-12T07:22:17.998Z,39.77
2023-04-12T07:23:18.029Z,39.79
2023-04-12T07:24:16.987Z,39.75
2023-04-12T07:25:16.958Z,39.75
2023-04-12T07:26:17.961Z,39.74
2023-04-12T07:27:18.047Z,39.77
2023-04-12T07:28:17.958Z,39.80
2023-04-12T07:29:16.929Z,39.77
2023-04-12T07:30:17.933Z,39.76
2023-04-12T07:31:17.947Z,39.76
2023-04-12T07:32:18.035Z,39.76
2023-04-12T07:33:19.904Z,39.75
2023-04-12T07:34:18.084Z,39.75
2023-04-12T07:35:17.948Z,39.75
2023-04-12T07:36:17.957Z,39.75
2023-04-12T07:37:17.936Z,39.73
2023-04-12T07:38:17.146Z,39.75
2023-04-12T07:39:16.916Z,39.75
2023-04-12T07:40:17.915Z,39.72
2023-04-12T07:41:17.908Z,39.72
2023-04-12T07:42:16.967Z,39.75
2023-04-12T07:43:17.963Z,39.71
2023-04-12T07:44:17.895Z,39.71
2023-04-12T07:45:17.877Z,39.71
2023-04-12T07:46:17.897Z,39.77
2023-04-12T07:47:17.944Z,39.72
2023-04-12T07:48:16.878Z,39.73
2023-04-12T07:49:17.871Z,39.72
2023-04-12T07:50:17.854Z,39.69
2023-04-12T07:51:17.848Z,39.75
2023-04-12T07:52:17.845Z,39.73
2023-04-12T07:53:17.936Z,39.69
2023-04-12T07:54:17.856Z,39.87
2023-04-12T07:55:16.812Z,39.94
2023-04-12T07:56:17.831Z,40.02
2023-04-12T07:57:17.951Z,40.05
2023-04-12T07:58:17.824Z,39.99
2023-04-12T07:59:17.815Z,39.96
2023-04-12T08:00:18.181Z,40.10
2023-04-12T08:01:17.856Z,40.64
2023-04-12T08:02:17.889Z,39.88
2023-04-12T08:03:17.861Z,39.82
2023-04-12T08:04:17.988Z,39.76
2023-04-12T08:05:17.798Z,39.73
2023-04-12T08:06:16.769Z,39.93
2023-04-12T08:07:17.839Z,39.77
2023-04-12T08:08:16.726Z,39.97
2023-04-12T08:09:16.753Z,39.94
2023-04-12T08:10:16.732Z,39.93
2023-04-12T08:11:17.836Z,39.98
2023-04-12T08:12:17.723Z,40.01
2023-04-12T08:13:23.079Z,39.95
2023-04-12T08:14:17.758Z,40.03
2023-04-12T08:15:17.698Z,40.02
2023-04-12T08:16:17.716Z,40.17
2023-04-12T08:17:17.669Z,40.03
2023-04-12T08:18:17.935Z,40.03
2023-04-12T08:19:16.708Z,39.97
2023-04-12T08:20:17.653Z,40.01
2023-04-12T08:21:16.636Z,40.11
2023-04-12T08:22:17.650Z,39.99
2023-04-12T08:23:17.693Z,39.97
2023-04-12T08:24:17.647Z,40.13
2023-04-12T08:25:16.611Z,40.16
2023-04-12T08:26:17.673Z,40.13
2023-04-12T08:27:17.665Z,40.11
2023-04-12T08:28:16.587Z,39.98
2023-04-12T08:29:17.593Z,40.03
2023-04-12T08:30:17.692Z,40.06
2023-04-12T08:31:17.786Z,40.14
2023-04-12T08:32:17.643Z,40.14
2023-04-12T08:33:17.557Z,40.18
2023-04-12T08:34:16.556Z,40.29
2023-04-12T08:35:26.993Z,40.26
2023-04-12T08:36:16.633Z,40.42
2023-04-12T08:37:17.558Z,40.32
2023-04-12T08:38:17.536Z,40.42
2023-04-12T08:39:16.518Z,40.30
2023-04-12T08:40:17.553Z,40.32
2023-04-12T08:41:16.520Z,40.24
2023-04-12T08:42:17.633Z,40.40
2023-04-12T08:43:17.037Z,40.49
2023-04-12T08:44:17.528Z,40.52
2023-04-12T08:45:17.502Z,40.58
2023-04-12T08:46:17.678Z,40.61
2023-04-12T08:47:16.496Z,40.64
2023-04-12T08:48:17.522Z,40.66
2023-04-12T08:49:17.481Z,40.70
2023-04-12T08:50:16.548Z,40.71
2023-04-12T08:51:16.589Z,40.75
2023-04-12T08:52:17.587Z,40.76
2023-04-12T08:53:17.474Z,40.73
2023-04-12T08:54:16.488Z,40.79
2023-04-12T08:55:17.452Z,40.82
2023-04-12T08:56:17.454Z,40.86
2023-04-12T08:57:17.423Z,40.89
2023-04-12T08:58:17.520Z,40.94
2023-04-12T08:59:17.401Z,40.94
2023-04-12T09:00:17.459Z,40.96
2023-04-12T09:01:17.391Z,40.99
2023-04-12T09:02:17.541Z,41.03
2023-04-12T09:03:16.826Z,41.03
2023-04-12T09:04:16.508Z,41.02
2023-04-12T09:05:17.438Z,41.07
2023-04-12T09:06:17.458Z,41.12
2023-04-12T09:07:16.501Z,41.11
2023-04-12T09:08:17.560Z,41.11
2023-04-12T09:09:17.640Z,41.15
2023-04-12T09:10:16.703Z,41.15
2023-04-12T09:11:17.788Z,41.15
2023-04-12T09:12:16.824Z,41.09
2023-04-12T09:13:17.890Z,41.09
2023-04-12T09:14:17.905Z,41.10
2023-04-12T09:15:16.972Z,41.10
2023-04-12T09:16:18.070Z,41.11
2023-04-12T09:17:18.151Z,41.14
2023-04-12T09:18:18.247Z,41.13
2023-04-12T09:19:18.294Z,41.11
2023-04-12T09:20:17.412Z,41.11
2023-04-12T09:21:18.328Z,41.13
2023-04-12T09:22:18.364Z,41.14
2023-04-12T09:23:18.438Z,41.10
2023-04-12T09:24:18.486Z,41.16
2023-04-12T09:25:17.556Z,41.15
2023-04-12T09:26:17.631Z,41.17
2023-04-12T09:27:18.590Z,41.18
2023-04-12T09:28:17.680Z,41.15
2023-04-12T09:29:17.681Z,41.19
2023-04-12T09:30:17.803Z,41.19
2023-04-12T09:31:18.853Z,41.20
2023-04-12T09:32:18.844Z,41.20
2023-04-12T09:33:18.868Z,41.20
2023-04-12T09:34:18.913Z,41.18
2023-04-12T09:35:18.086Z,41.17
2023-04-12T09:36:18.964Z,41.22
2023-04-12T09:37:17.998Z,41.22
2023-04-12T09:38:19.019Z,41.22
2023-04-12T09:39:18.058Z,41.22
2023-04-12T09:40:18.102Z,41.21
2023-04-12T09:41:22.320Z,41.16
2023-04-12T09:42:33.188Z,41.19
2023-04-12T09:43:19.119Z,41.22
2023-04-12T09:44:18.098Z,41.23
2023-04-12T09:45:19.063Z,41.21
2023-04-12T09:46:19.089Z,41.19
2023-04-12T09:47:19.030Z,41.20
2023-04-12T09:48:19.523Z,41.19
2023-04-12T09:49:19.067Z,41.19
2023-04-12T09:50:18.137Z,41.18
2023-04-12T09:51:19.060Z,41.20
2023-04-12T09:52:19.041Z,41.20
2023-04-12T09:53:18.041Z,41.20
2023-04-12T09:54:17.991Z,41.10
2023-04-12T09:55:19.222Z,41.37
2023-04-12T09:56:18.983Z,41.20
2023-04-12T09:57:18.987Z,41.33
2023-04-12T09:58:17.991Z,41.39
2023-04-12T09:59:18.981Z,41.46
2023-04-12T10:00:19.031Z,41.56
2023-04-12T10:01:17.972Z,41.60
2023-04-12T10:02:19.122Z,41.57
2023-04-12T10:03:19.138Z,41.66
2023-04-12T10:04:19.085Z,41.70
2023-04-12T10:05:18.176Z,41.72
2023-04-12T10:06:18.916Z,41.80
2023-04-12T10:07:18.935Z,41.82
2023-04-12T10:08:18.891Z,41.78
2023-04-12T10:09:17.887Z,41.94
2023-04-12T10:10:18.144Z,41.79
2023-04-12T10:11:18.891Z,41.89
2023-04-12T10:12:17.870Z,41.85
2023-04-12T10:13:18.870Z,41.91
2023-04-12T10:14:17.949Z,41.94
2023-04-12T10:15:18.419Z,41.92
2023-04-12T10:16:17.883Z,42.05
2023-04-12T10:17:18.826Z,42.01
2023-04-12T10:18:19.014Z,42.10
2023-04-12T10:19:18.863Z,42.07
2023-04-12T10:20:18.104Z,42.15
2023-04-12T10:21:18.971Z,42.21
2023-04-12T10:22:28.007Z,42.28
2023-04-12T10:23:17.972Z,42.56
2023-04-12T10:24:18.971Z,42.29
2023-04-12T10:25:18.950Z,42.30
2023-04-12T10:26:17.919Z,42.42
2023-04-12T10:27:18.951Z,42.37
2023-04-12T10:28:17.925Z,42.61
2023-04-12T10:29:18.912Z,42.44
2023-04-12T10:30:18.900Z,42.50
2023-04-12T10:31:18.937Z,42.53
2023-04-12T10:32:18.951Z,42.72
2023-04-12T10:33:19.006Z,42.75
2023-04-12T10:34:17.905Z,42.68
2023-04-12T10:35:17.945Z,42.73
2023-04-12T10:36:18.012Z,42.61
2023-04-12T10:37:18.863Z,42.76
2023-04-12T10:38:18.896Z,42.81
2023-04-12T10:39:18.854Z,42.96
2023-04-12T10:40:18.847Z,43.08
2023-04-12T10:41:17.853Z,42.91
2023-04-12T10:42:18.832Z,42.96
2023-04-12T10:43:18.097Z,43.21
2023-04-12T10:44:17.856Z,43.13
2023-04-12T10:45:18.862Z,43.11
2023-04-12T10:46:18.878Z,43.15
2023-04-12T10:47:18.000Z,43.14
2023-04-12T10:48:19.044Z,43.19
2023-04-12T10:49:19.470Z,43.15
2023-04-12T10:50:17.792Z,43.35
2023-04-12T10:51:20.478Z,43.35
2023-04-12T10:52:18.785Z,43.30
2023-04-12T10:53:17.760Z,43.31
2023-04-12T10:54:18.837Z,43.81
2023-04-12T10:55:18.902Z,43.50
2023-04-12T10:56:18.788Z,43.67
2023-04-12T10:57:18.744Z,43.54
2023-04-12T10:58:17.745Z,43.61
2023-04-12T10:59:18.759Z,43.49
2023-04-12T11:00:18.828Z,43.64
2023-04-12T11:01:17.818Z,43.64
2023-04-12T11:02:17.760Z,43.68
2023-04-12T11:03:17.882Z,43.76
2023-04-12T11:04:18.914Z,43.76
2023-04-12T11:05:18.820Z,43.71
2023-04-12T11:06:27.135Z,43.72
2023-04-12T11:07:18.666Z,43.84
2023-04-12T11:08:18.702Z,43.87
2023-04-12T11:09:18.641Z,43.77
2023-04-12T11:10:18.774Z,43.89
2023-04-12T11:11:17.677Z,43.85
2023-04-12T11:12:18.624Z,43.86
2023-04-12T11:13:17.613Z,44.03
2023-04-12T11:14:18.632Z,44.27
2023-04-12T11:15:17.631Z,44.21
2023-04-12T11:16:17.655Z,44.12
2023-04-12T11:17:18.706Z,44.05
2023-04-12T11:18:18.652Z,44.06
2023-04-12T11:19:18.580Z,44.25
2023-04-12T11:20:18.563Z,44.32
2023-04-12T11:21:18.585Z,44.52
2023-04-12T11:22:18.565Z,44.41
2023-04-12T11:23:18.617Z,44.51
2023-04-12T11:24:18.542Z,44.61
2023-04-12T11:25:17.531Z,44.50
2023-04-12T11:26:18.603Z,44.52
2023-04-12T11:27:18.540Z,44.72
2023-04-12T11:28:27.916Z,44.78
2023-04-12T11:29:18.512Z,44.94
2023-04-12T11:30:18.511Z,44.81
2023-04-12T11:31:18.526Z,44.67
2023-04-12T11:32:17.556Z,44.54
2023-04-12T11:33:17.472Z,44.52
2023-04-12T11:34:18.567Z,44.34
2023-04-12T11:35:18.462Z,44.33
2023-04-12T11:36:18.465Z,44.34
2023-04-12T11:37:17.451Z,44.63
2023-04-12T11:38:18.443Z,44.74
2023-04-12T11:39:18.431Z,44.76
2023-04-12T11:40:18.446Z,44.72
2023-04-12T11:41:18.506Z,44.84
2023-04-12T11:42:17.445Z,44.81
2023-04-12T11:43:18.447Z,44.85
2023-04-12T11:44:17.566Z,44.95
2023-04-12T11:45:18.438Z,44.93
2023-04-12T11:46:18.756Z,44.90
2023-04-12T11:47:18.671Z,44.99
2023-04-12T11:48:18.837Z,44.98
2023-04-12T11:49:18.770Z,45.04
2023-04-12T11:50:18.861Z,45.04
2023-04-12T11:51:17.901Z,45.06
2023-04-12T11:52:18.973Z,44.99
2023-04-12T11:53:19.025Z,45.03
2023-04-12T11:54:19.094Z,45.03
2023-04-12T11:55:18.120Z,45.04
2023-04-12T11:56:18.188Z,45.09
2023-04-12T11:57:18.247Z,45.05
2023-04-12T11:58:19.320Z,45.01
2023-04-12T11:59:18.310Z,45.05
2023-04-12T12:00:19.305Z,45.12
2023-04-12T12:01:18.319Z,45.13
2023-04-12T12:02:23.282Z,45.08
2023-04-12T12:03:20.976Z,45.19
2023-04-12T12:04:19.441Z,45.11
2023-04-12T12:05:18.498Z,45.11
2023-04-12T12:06:18.456Z,45.13
2023-04-12T12:07:19.526Z,45.24
2023-04-12T12:08:18.266Z,45.26
2023-04-12T12:09:19.264Z,45.23
2023-04-12T12:10:37.728Z,45.24
2023-04-12T12:11:19.263Z,45.19
2023-04-12T12:12:18.249Z,44.96
2023-04-12T12:13:19.244Z,45.00
2023-04-12T12:14:19.299Z,45.03
2023-04-12T12:15:19.225Z,44.72
2023-04-12T12:16:19.211Z,44.79
2023-04-12T12:17:18.202Z,44.58
2023-04-12T12:18:18.202Z,44.61
2023-04-12T12:19:18.183Z,44.53
2023-04-12T12:20:19.223Z,44.55
2023-04-12T12:21:18.179Z,44.43
2023-04-12T12:22:19.207Z,44.59
2023-04-12T12:23:19.175Z,44.54
2023-04-12T12:24:18.205Z,44.53
2023-04-12T12:25:19.158Z,44.53
2023-04-12T12:26:19.589Z,44.58
2023-04-12T12:27:18.126Z,44.53
2023-04-12T12:28:18.252Z,44.53
2023-04-12T12:29:18.111Z,44.54
2023-04-12T12:30:18.129Z,44.55
2023-04-12T12:31:18.137Z,44.58
2023-04-12T12:32:19.124Z,44.56
2023-04-12T12:33:18.083Z,44.53
2023-04-12T12:34:19.073Z,44.56
2023-04-12T12:35:19.066Z,44.57
2023-04-12T12:36:18.046Z,44.58
2023-04-12T12:37:19.050Z,44.60
2023-04-12T12:38:19.074Z,44.65
2023-04-12T12:39:19.028Z,44.63
2023-04-12T12:40:18.029Z,44.62
2023-04-12T12:41:18.009Z,44.70
2023-04-12T12:42:18.005Z,44.69
2023-04-12T12:43:18.989Z,44.69
2023-04-12T12:44:18.988Z,44.72
2023-04-12T12:45:18.969Z,44.75
2023-04-12T12:46:19.200Z,44.77
2023-04-12T12:47:19.053Z,44.79
2023-04-12T12:48:19.148Z,44.79
2023-04-12T12:49:18.172Z,44.86
2023-04-12T12:50:19.211Z,44.82
2023-04-12T12:51:19.772Z,44.77
2023-04-12T12:52:18.358Z,44.85
2023-04-12T12:53:18.393Z,44.89
2023-04-12T12:54:32.108Z,44.88
2023-04-12T12:55:19.444Z,44.92
2023-04-12T12:56:18.435Z,44.95
2023-04-12T12:57:19.440Z,44.92
2023-04-12T12:58:18.438Z,44.86
2023-04-12T12:59:18.410Z,44.94
2023-04-12T13:00:18.427Z,44.92
2023-04-12T13:01:18.409Z,44.98
2023-04-12T13:02:19.527Z,44.98
2023-04-12T13:03:19.700Z,44.95
2023-04-12T13:04:18.492Z,44.99
2023-04-12T13:05:19.445Z,44.99
2023-04-12T13:06:18.371Z,45.04
2023-04-12T13:07:18.382Z,45.07
2023-04-12T13:08:18.366Z,45.02
2023-04-12T13:09:19.373Z,45.02
2023-04-12T13:10:19.339Z,45.03
2023-04-12T13:11:19.344Z,45.06
2023-04-12T13:12:19.343Z,45.05
2023-04-12T13:13:19.337Z,45.12
2023-04-12T13:14:18.326Z,45.17
2023-04-12T13:15:22.945Z,45.10
2023-04-12T13:16:19.344Z,45.15
2023-04-12T13:17:19.307Z,45.15
2023-04-12T13:18:18.334Z,45.16
2023-04-12T13:19:18.289Z,45.16
2023-04-12T13:20:19.285Z,45.17
2023-04-12T13:21:19.273Z,45.19
2023-04-12T13:22:18.259Z,45.27
2023-04-12T13:23:19.270Z,45.27
2023-04-12T13:24:19.252Z,45.23
2023-04-12T13:25:19.260Z,45.23
2023-04-12T13:26:19.253Z,45.30
2023-04-12T13:27:19.249Z,45.26
2023-04-12T13:28:18.224Z,45.27
2023-04-12T13:29:18.230Z,45.30
2023-04-12T13:30:18.213Z,45.34
2023-04-12T13:31:18.292Z,45.44
2023-04-12T13:32:19.198Z,45.40
2023-04-12T13:33:21.869Z,45.34
2023-04-12T13:34:19.208Z,45.40
2023-04-12T13:35:18.188Z,45.43
2023-04-12T13:36:18.165Z,45.47
2023-04-12T13:37:19.171Z,45.43
2023-04-12T13:38:19.188Z,45.36
2023-04-12T13:39:19.155Z,45.39
2023-04-12T13:40:19.155Z,45.42
2023-04-12T13:41:19.172Z,45.41
2023-04-12T13:42:18.133Z,45.49
2023-04-12T13:43:18.124Z,45.42
2023-04-12T13:44:18.125Z,45.50
2023-04-12T13:45:19.118Z,45.47
2023-04-12T13:46:19.167Z,45.45
2023-04-12T13:47:19.105Z,45.46
2023-04-12T13:48:18.095Z,45.52
2023-04-12T13:49:19.089Z,45.54
2023-04-12T13:50:18.095Z,45.55
2023-04-12T13:51:18.080Z,45.52
2023-04-12T13:52:18.068Z,45.52
2023-04-12T13:53:19.056Z,45.55
2023-04-12T13:54:19.065Z,45.55
2023-04-12T13:55:19.615Z,45.58
2023-04-12T13:56:18.047Z,45.62
2023-04-12T13:57:18.035Z,45.58
2023-04-12T13:58:19.060Z,45.57
2023-04-12T13:59:18.021Z,45.61
2023-04-12T14:00:19.064Z,45.62
2023-04-12T14:01:19.044Z,45.58
2023-04-12T14:02:19.068Z,45.56
2023-04-12T14:03:18.037Z,45.56
2023-04-12T14:04:18.021Z,45.47
2023-04-12T14:05:18.975Z,45.44
2023-04-12T14:06:19.010Z,45.45
2023-04-12T14:07:17.955Z,45.43
2023-04-12T14:08:17.981Z,45.43
2023-04-12T14:09:18.949Z,45.32
2023-04-12T14:10:18.947Z,45.31
2023-04-12T14:11:18.949Z,45.35
2023-04-12T14:12:17.920Z,45.31
2023-04-12T14:13:18.948Z,45.37
2023-04-12T14:14:18.926Z,45.36
2023-04-12T14:15:18.973Z,45.33
2023-04-12T14:16:18.905Z,45.27
2023-04-12T14:17:18.959Z,45.24
2023-04-12T14:18:18.913Z,45.30
2023-04-12T14:19:17.871Z,45.21
2023-04-12T14:20:19.553Z,45.17
2023-04-12T14:21:18.877Z,45.21
2023-04-12T14:22:18.884Z,45.14
2023-04-12T14:23:18.851Z,45.10
2023-04-12T14:24:17.847Z,45.10
2023-04-12T14:25:18.829Z,45.16
2023-04-12T14:26:18.820Z,45.11
2023-04-12T14:27:18.826Z,45.08
2023-04-12T14:28:17.808Z,45.15
2023-04-12T14:29:17.808Z,45.09
2023-04-12T14:30:19.113Z,45.08
2023-04-12T14:31:17.847Z,45.06
2023-04-12T14:32:18.781Z,45.06
2023-04-12T14:33:17.871Z,45.04
2023-04-12T14:34:17.765Z,45.08
2023-04-12T14:35:17.761Z,45.05
2023-04-12T14:36:17.762Z,44.95
2023-04-12T14:37:18.745Z,45.02
2023-04-12T14:38:17.767Z,45.03
2023-04-12T14:39:17.747Z,44.98
2023-04-12T14:40:17.715Z,44.92
2023-04-12T14:41:18.708Z,44.91
2023-04-12T14:42:17.705Z,44.89
2023-04-12T14:43:18.727Z,44.84
2023-04-12T14:44:20.412Z,44.76
2023-04-12T14:45:18.730Z,44.68
2023-04-12T14:46:17.766Z,44.62
2023-04-12T14:47:17.710Z,44.60
2023-04-12T14:48:18.693Z,44.53
2023-04-12T14:49:18.678Z,44.51
2023-04-12T14:50:18.686Z,44.52
2023-04-12T14:51:18.680Z,44.63
2023-04-12T14:52:18.684Z,44.65
2023-04-12T14:53:18.661Z,44.68
2023-04-12T14:54:18.679Z,44.66
2023-04-12T14:55:17.645Z,44.62
2023-04-12T14:56:17.630Z,44.56
2023-04-12T14:57:18.633Z,44.60
2023-04-12T14:58:18.622Z,44.58
2023-04-12T14:59:17.646Z,44.60
2023-04-12T15:00:18.614Z,44.59
2023-04-12T15:01:17.619Z,44.59
2023-04-12T15:02:18.737Z,44.61
2023-04-12T15:03:17.816Z,44.55
2023-04-12T15:04:18.746Z,44.59
2023-04-12T15:05:18.643Z,44.57
2023-04-12T15:06:17.566Z,44.58
2023-04-12T15:07:17.549Z,44.58
2023-04-12T15:08:18.552Z,44.58
2023-04-12T15:09:17.792Z,44.60
2023-04-12T15:10:17.568Z,44.61
2023-04-12T15:11:18.535Z,44.56
2023-04-12T15:12:18.535Z,44.59
2023-04-12T15:13:19.162Z,44.62
2023-04-12T15:14:18.517Z,44.62
2023-04-12T15:15:18.526Z,44.61
2023-04-12T15:16:18.540Z,44.62
2023-04-12T15:17:17.537Z,44.59
2023-04-12T15:18:18.561Z,44.59
2023-04-12T15:19:21.954Z,44.64
2023-04-12T15:20:18.574Z,44.67
2023-04-12T15:21:17.587Z,44.65
2023-04-12T15:22:18.597Z,44.66
2023-04-12T15:23:17.613Z,44.65
2023-04-12T15:24:18.623Z,44.69
2023-04-12T15:25:18.631Z,44.70
2023-04-12T15:26:17.671Z,44.71
2023-04-12T15:27:17.673Z,44.72
2023-04-12T15:28:18.672Z,44.71
2023-04-12T15:29:18.689Z,44.73
